sensor_id;sensor_type;location;lat;lon;timestamp;P1;durP1;ratioP1;P2;durP2;ratioP2
13797;SDS011;6970;51.340;3.240;2022-12-08T00:01:22;3.53;;;1.40;;
13797;SDS011;6970;51.340;3.240;2022-12-08T00:03:53;6.43;;;1.80;;
13797;SDS011;6970;51.340;3.240;2022-12-08T00:09:20;4.33;;;1.40;;
13797;SDS011;6970;51.340;3.240;2022-12-08T00:12:04;7.33;;;1.63;;
13797;SDS011;6970;51.340;3.240;2022-12-08T00:14:40;5.87;;;1.70;;
13797;SDS011;6970;51.340;3.240;2022-12-08T00:17:09;3.57;;;1.40;;
13797;SDS011;6970;51.340;3.240;2022-12-08T00:19:37;4.63;;;2.00;;
13797;SDS011;6970;51.340;3.240;2022-12-08T00:22:06;6.00;;;1.30;;
13797;SDS011;6970;51.340;3.240;2022-12-08T00:24:35;4.27;;;1.00;;
13797;SDS011;6970;51.340;3.240;2022-12-08T00:27:07;3.10;;;1.37;;
13797;SDS011;6970;51.340;3.240;2022-12-08T00:29:35;6.23;;;1.70;;
13797;SDS011;6970;51.340;3.240;2022-12-08T00:32:02;11.53;;;1.60;;
13797;SDS011;6970;51.340;3.240;2022-12-08T00:34:31;6.47;;;1.60;;
13797;SDS011;6970;51.340;3.240;2022-12-08T00:36:58;4.87;;;1.40;;
13797;SDS011;6970;51.340;3.240;2022-12-08T00:39:25;5.17;;;1.80;;
13797;SDS011;6970;51.340;3.240;2022-12-08T00:41:52;4.27;;;1.87;;
13797;SDS011;6970;51.340;3.240;2022-12-08T00:44:38;3.90;;;1.47;;
13797;SDS011;6970;51.340;3.240;2022-12-08T00:47:06;9.83;;;2.10;;
13797;SDS011;6970;51.340;3.240;2022-12-08T00:49:33;4.00;;;1.50;;
13797;SDS011;6970;51.340;3.240;2022-12-08T00:51:59;3.03;;;1.50;;
13797;SDS011;6970;51.340;3.240;2022-12-08T00:54:27;2.77;;;1.20;;
13797;SDS011;6970;51.340;3.240;2022-12-08T00:56:54;2.87;;;1.30;;
13797;SDS011;6970;51.340;3.240;2022-12-08T00:59:21;5.03;;;1.50;;
13797;SDS011;6970;51.340;3.240;2022-12-08T01:01:47;3.70;;;1.27;;
13797;SDS011;6970;51.340;3.240;2022-12-08T01:04:15;4.97;;;1.20;;
13797;SDS011;6970;51.340;3.240;2022-12-08T01:06:44;3.37;;;1.00;;
13797;SDS011;6970;51.340;3.240;2022-12-08T01:09:11;4.20;;;1.97;;
13797;SDS011;6970;51.340;3.240;2022-12-08T01:11:40;2.93;;;0.90;;
13797;SDS011;6970;51.340;3.240;2022-12-08T01:14:07;9.27;;;1.40;;
13797;SDS011;6970;51.340;3.240;2022-12-08T01:16:34;4.93;;;1.30;;
13797;SDS011;6970;51.340;3.240;2022-12-08T01:19:02;4.13;;;1.27;;
13797;SDS011;6970;51.340;3.240;2022-12-08T01:21:29;3.40;;;1.30;;
13797;SDS011;6970;51.340;3.240;2022-12-08T01:23:57;4.80;;;1.40;;
13797;SDS011;6970;51.340;3.240;2022-12-08T01:26:26;5.67;;;1.80;;
13797;SDS011;6970;51.340;3.240;2022-12-08T01:28:53;6.73;;;1.60;;
13797;SDS011;6970;51.340;3.240;2022-12-08T01:31:21;3.80;;;1.30;;
13797;SDS011;6970;51.340;3.240;2022-12-08T01:33:48;4.77;;;1.27;;
13797;SDS011;6970;51.340;3.240;2022-12-08T01:36:20;3.87;;;1.40;;
13797;SDS011;6970;51.340;3.240;2022-12-08T01:38:49;5.73;;;1.30;;
13797;SDS011;6970;51.340;3.240;2022-12-08T01:41:17;2.63;;;1.30;;
13797;SDS011;6970;51.340;3.240;2022-12-08T01:46:21;4.43;;;1.40;;
13797;SDS011;6970;51.340;3.240;2022-12-08T01:48:50;3.83;;;1.30;;
13797;SDS011;6970;51.340;3.240;2022-12-08T01:51:23;3.87;;;1.00;;
13797;SDS011;6970;51.340;3.240;2022-12-08T01:53:51;2.57;;;1.20;;
13797;SDS011;6970;51.340;3.240;2022-12-08T01:56:19;5.53;;;1.47;;
13797;SDS011;6970;51.340;3.240;2022-12-08T01:58:57;4.70;;;1.37;;
13797;SDS011;6970;51.340;3.240;2022-12-08T02:01:24;2.20;;;0.97;;
13797;SDS011;6970;51.340;3.240;2022-12-08T02:03:55;4.63;;;1.00;;
13797;SDS011;6970;51.340;3.240;2022-12-08T02:06:24;2.60;;;1.10;;
13797;SDS011;6970;51.340;3.240;2022-12-08T02:08:53;3.97;;;1.10;;
13797;SDS011;6970;51.340;3.240;2022-12-08T02:11:21;4.27;;;1.10;;
13797;SDS011;6970;51.340;3.240;2022-12-08T02:13:49;2.47;;;0.70;;
13797;SDS011;6970;51.340;3.240;2022-12-08T02:16:21;3.40;;;1.00;;
13797;SDS011;6970;51.340;3.240;2022-12-08T02:22:05;3.53;;;1.10;;
13797;SDS011;6970;51.340;3.240;2022-12-08T02:30:53;3.93;;;1.40;;
13797;SDS011;6970;51.340;3.240;2022-12-08T02:36:56;4.10;;;1.90;;
13797;SDS011;6970;51.340;3.240;2022-12-08T02:39:31;7.23;;;1.80;;
13797;SDS011;6970;51.340;3.240;2022-12-08T02:47:25;2.10;;;1.30;;
13797;SDS011;6970;51.340;3.240;2022-12-08T02:49:54;6.10;;;1.33;;
13797;SDS011;6970;51.340;3.240;2022-12-08T02:54:56;5.63;;;1.20;;
13797;SDS011;6970;51.340;3.240;2022-12-08T03:11:47;2.73;;;1.00;;
13797;SDS011;6970;51.340;3.240;2022-12-08T03:14:35;6.53;;;1.50;;
13797;SDS011;6970;51.340;3.240;2022-12-08T03:17:07;2.50;;;1.13;;
13797;SDS011;6970;51.340;3.240;2022-12-08T03:19:36;1.90;;;1.30;;
13797;SDS011;6970;51.340;3.240;2022-12-08T03:22:06;3.30;;;1.33;;
13797;SDS011;6970;51.340;3.240;2022-12-08T03:24:36;4.27;;;1.47;;
13797;SDS011;6970;51.340;3.240;2022-12-08T03:27:15;6.63;;;1.60;;
13797;SDS011;6970;51.340;3.240;2022-12-08T03:29:45;3.63;;;1.03;;
13797;SDS011;6970;51.340;3.240;2022-12-08T03:35:03;2.37;;;1.23;;
13797;SDS011;6970;51.340;3.240;2022-12-08T03:37:34;1.63;;;1.53;;
13797;SDS011;6970;51.340;3.240;2022-12-08T03:40:04;3.13;;;1.40;;
13797;SDS011;6970;51.340;3.240;2022-12-08T03:42:33;3.73;;;1.10;;
13797;SDS011;6970;51.340;3.240;2022-12-08T03:45:00;4.00;;;1.30;;
13797;SDS011;6970;51.340;3.240;2022-12-08T03:47:27;2.73;;;1.40;;
13797;SDS011;6970;51.340;3.240;2022-12-08T03:49:54;2.50;;;1.03;;
13797;SDS011;6970;51.340;3.240;2022-12-08T03:52:21;2.53;;;1.07;;
13797;SDS011;6970;51.340;3.240;2022-12-08T03:54:48;3.53;;;1.30;;
13797;SDS011;6970;51.340;3.240;2022-12-08T03:57:15;1.10;;;1.00;;
13797;SDS011;6970;51.340;3.240;2022-12-08T03:59:42;2.40;;;0.80;;
13797;SDS011;6970;51.340;3.240;2022-12-08T04:02:09;0.80;;;0.80;;
13797;SDS011;6970;51.340;3.240;2022-12-08T04:04:37;2.80;;;1.00;;
13797;SDS011;6970;51.340;3.240;2022-12-08T04:07:04;2.37;;;0.90;;
13797;SDS011;6970;51.340;3.240;2022-12-08T04:09:31;2.30;;;1.10;;
13797;SDS011;6970;51.340;3.240;2022-12-08T04:11:58;2.47;;;1.10;;
13797;SDS011;6970;51.340;3.240;2022-12-08T04:14:24;3.23;;;1.47;;
13797;SDS011;6970;51.340;3.240;2022-12-08T04:16:51;3.77;;;1.73;;
13797;SDS011;6970;51.340;3.240;2022-12-08T04:19:18;3.37;;;1.67;;
13797;SDS011;6970;51.340;3.240;2022-12-08T04:21:45;2.00;;;0.83;;
13797;SDS011;6970;51.340;3.240;2022-12-08T04:24:12;2.30;;;1.07;;
13797;SDS011;6970;51.340;3.240;2022-12-08T04:26:39;4.57;;;1.30;;
13797;SDS011;6970;51.340;3.240;2022-12-08T04:29:06;3.50;;;1.20;;
13797;SDS011;6970;51.340;3.240;2022-12-08T04:31:33;2.80;;;0.80;;
13797;SDS011;6970;51.340;3.240;2022-12-08T04:34:00;2.10;;;0.97;;
13797;SDS011;6970;51.340;3.240;2022-12-08T04:36:27;5.90;;;1.13;;
13797;SDS011;6970;51.340;3.240;2022-12-08T04:38:54;1.10;;;1.00;;
13797;SDS011;6970;51.340;3.240;2022-12-08T04:41:20;2.37;;;1.03;;
13797;SDS011;6970;51.340;3.240;2022-12-08T04:43:48;2.97;;;1.30;;
13797;SDS011;6970;51.340;3.240;2022-12-08T04:46:14;2.83;;;1.23;;
13797;SDS011;6970;51.340;3.240;2022-12-08T04:48:41;3.27;;;1.10;;
13797;SDS011;6970;51.340;3.240;2022-12-08T04:51:15;1.97;;;0.93;;
13797;SDS011;6970;51.340;3.240;2022-12-08T04:53:43;3.43;;;1.07;;
13797;SDS011;6970;51.340;3.240;2022-12-08T04:56:13;3.20;;;1.20;;
13797;SDS011;6970;51.340;3.240;2022-12-08T04:58:41;3.30;;;1.10;;
13797;SDS011;6970;51.340;3.240;2022-12-08T05:01:09;3.80;;;1.90;;
13797;SDS011;6970;51.340;3.240;2022-12-08T05:03:36;5.20;;;2.77;;
13797;SDS011;6970;51.340;3.240;2022-12-08T05:06:03;2.97;;;1.60;;
13797;SDS011;6970;51.340;3.240;2022-12-08T05:08:30;3.40;;;1.53;;
13797;SDS011;6970;51.340;3.240;2022-12-08T05:11:05;2.77;;;1.30;;
13797;SDS011;6970;51.340;3.240;2022-12-08T05:13:34;3.57;;;1.20;;
13797;SDS011;6970;51.340;3.240;2022-12-08T05:16:04;2.07;;;1.10;;
13797;SDS011;6970;51.340;3.240;2022-12-08T05:18:33;3.03;;;1.13;;
13797;SDS011;6970;51.340;3.240;2022-12-08T05:21:01;4.93;;;1.20;;
13797;SDS011;6970;51.340;3.240;2022-12-08T05:23:29;1.70;;;1.20;;
13797;SDS011;6970;51.340;3.240;2022-12-08T05:25:56;2.37;;;1.20;;
13797;SDS011;6970;51.340;3.240;2022-12-08T05:28:23;2.40;;;1.23;;
13797;SDS011;6970;51.340;3.240;2022-12-08T05:31:07;3.47;;;1.10;;
13797;SDS011;6970;51.340;3.240;2022-12-08T05:33:34;1.53;;;1.30;;
13797;SDS011;6970;51.340;3.240;2022-12-08T05:36:01;2.57;;;1.10;;
13797;SDS011;6970;51.340;3.240;2022-12-08T05:38:28;4.20;;;1.10;;
13797;SDS011;6970;51.340;3.240;2022-12-08T05:40:55;2.03;;;1.10;;
13797;SDS011;6970;51.340;3.240;2022-12-08T05:43:22;2.13;;;0.63;;
13797;SDS011;6970;51.340;3.240;2022-12-08T05:45:49;2.83;;;0.90;;
13797;SDS011;6970;51.340;3.240;2022-12-08T05:48:16;1.30;;;0.77;;
13797;SDS011;6970;51.340;3.240;2022-12-08T05:50:46;1.50;;;0.77;;
13797;SDS011;6970;51.340;3.240;2022-12-08T05:53:14;0.87;;;0.70;;
13797;SDS011;6970;51.340;3.240;2022-12-08T05:55:42;1.67;;;0.70;;
13797;SDS011;6970;51.340;3.240;2022-12-08T05:58:14;4.90;;;0.97;;
13797;SDS011;6970;51.340;3.240;2022-12-08T06:00:42;3.10;;;0.90;;
13797;SDS011;6970;51.340;3.240;2022-12-08T06:03:10;2.23;;;0.93;;
13797;SDS011;6970;51.340;3.240;2022-12-08T06:05:39;4.40;;;0.70;;
13797;SDS011;6970;51.340;3.240;2022-12-08T06:08:06;2.23;;;0.83;;
13797;SDS011;6970;51.340;3.240;2022-12-08T06:10:34;3.03;;;0.70;;
13797;SDS011;6970;51.340;3.240;2022-12-08T06:13:02;1.93;;;0.60;;
13797;SDS011;6970;51.340;3.240;2022-12-08T06:15:32;2.53;;;0.80;;
13797;SDS011;6970;51.340;3.240;2022-12-08T06:18:03;4.20;;;0.90;;
13797;SDS011;6970;51.340;3.240;2022-12-08T06:20:30;2.27;;;0.90;;
13797;SDS011;6970;51.340;3.240;2022-12-08T06:22:57;2.33;;;0.70;;
13797;SDS011;6970;51.340;3.240;2022-12-08T06:25:24;2.60;;;0.80;;
13797;SDS011;6970;51.340;3.240;2022-12-08T06:27:51;2.50;;;1.03;;
13797;SDS011;6970;51.340;3.240;2022-12-08T06:30:18;2.63;;;0.67;;
13797;SDS011;6970;51.340;3.240;2022-12-08T06:32:45;3.03;;;0.90;;
13797;SDS011;6970;51.340;3.240;2022-12-08T06:35:12;4.40;;;0.80;;
13797;SDS011;6970;51.340;3.240;2022-12-08T06:37:39;4.53;;;1.00;;
13797;SDS011;6970;51.340;3.240;2022-12-08T06:40:06;2.87;;;0.80;;
13797;SDS011;6970;51.340;3.240;2022-12-08T06:42:33;2.30;;;1.10;;
13797;SDS011;6970;51.340;3.240;2022-12-08T06:45:10;1.70;;;0.83;;
13797;SDS011;6970;51.340;3.240;2022-12-08T06:47:39;3.77;;;0.80;;
13797;SDS011;6970;51.340;3.240;2022-12-08T06:50:07;1.73;;;0.70;;
13797;SDS011;6970;51.340;3.240;2022-12-08T06:52:35;2.60;;;0.80;;
13797;SDS011;6970;51.340;3.240;2022-12-08T06:55:14;3.50;;;1.13;;
13797;SDS011;6970;51.340;3.240;2022-12-08T06:58:01;3.37;;;1.10;;
13797;SDS011;6970;51.340;3.240;2022-12-08T07:00:28;3.77;;;0.80;;
13797;SDS011;6970;51.340;3.240;2022-12-08T07:02:55;2.23;;;0.63;;
13797;SDS011;6970;51.340;3.240;2022-12-08T07:05:22;2.93;;;0.97;;
13797;SDS011;6970;51.340;3.240;2022-12-08T07:07:49;3.43;;;1.03;;
13797;SDS011;6970;51.340;3.240;2022-12-08T07:10:16;1.60;;;0.93;;
13797;SDS011;6970;51.340;3.240;2022-12-08T07:12:43;6.97;;;0.97;;
13797;SDS011;6970;51.340;3.240;2022-12-08T07:15:10;3.17;;;0.93;;
13797;SDS011;6970;51.340;3.240;2022-12-08T07:17:37;1.33;;;1.00;;
13797;SDS011;6970;51.340;3.240;2022-12-08T07:20:04;5.50;;;1.00;;
13797;SDS011;6970;51.340;3.240;2022-12-08T07:22:33;3.30;;;1.70;;
13797;SDS011;6970;51.340;3.240;2022-12-08T07:24:59;2.57;;;1.20;;
13797;SDS011;6970;51.340;3.240;2022-12-08T07:27:27;7.60;;;1.60;;
13797;SDS011;6970;51.340;3.240;2022-12-08T07:29:54;5.87;;;1.60;;
13797;SDS011;6970;51.340;3.240;2022-12-08T07:32:21;5.67;;;1.60;;
13797;SDS011;6970;51.340;3.240;2022-12-08T07:34:47;4.40;;;1.30;;
13797;SDS011;6970;51.340;3.240;2022-12-08T07:37:14;2.00;;;1.20;;
13797;SDS011;6970;51.340;3.240;2022-12-08T07:39:41;5.20;;;1.17;;
13797;SDS011;6970;51.340;3.240;2022-12-08T07:42:09;2.80;;;1.70;;
13797;SDS011;6970;51.340;3.240;2022-12-08T07:44:36;6.43;;;1.23;;
13797;SDS011;6970;51.340;3.240;2022-12-08T07:47:03;1.30;;;1.10;;
13797;SDS011;6970;51.340;3.240;2022-12-08T07:49:30;5.47;;;1.00;;
13797;SDS011;6970;51.340;3.240;2022-12-08T07:51:57;2.43;;;0.97;;
13797;SDS011;6970;51.340;3.240;2022-12-08T07:54:25;2.97;;;0.90;;
13797;SDS011;6970;51.340;3.240;2022-12-08T07:56:55;0.83;;;0.60;;
13797;SDS011;6970;51.340;3.240;2022-12-08T07:59:23;1.37;;;0.60;;
13797;SDS011;6970;51.340;3.240;2022-12-08T08:01:50;0.87;;;0.83;;
13797;SDS011;6970;51.340;3.240;2022-12-08T08:04:37;3.10;;;0.97;;
13797;SDS011;6970;51.340;3.240;2022-12-08T08:07:04;5.43;;;1.40;;
13797;SDS011;6970;51.340;3.240;2022-12-08T08:09:31;7.67;;;1.30;;
13797;SDS011;6970;51.340;3.240;2022-12-08T08:11:59;4.07;;;1.40;;
13797;SDS011;6970;51.340;3.240;2022-12-08T08:14:46;4.97;;;1.57;;
13797;SDS011;6970;51.340;3.240;2022-12-08T08:17:13;3.80;;;1.20;;
13797;SDS011;6970;51.340;3.240;2022-12-08T08:19:40;4.20;;;1.30;;
13797;SDS011;6970;51.340;3.240;2022-12-08T08:22:07;7.27;;;1.60;;
13797;SDS011;6970;51.340;3.240;2022-12-08T08:24:33;2.03;;;1.30;;
13797;SDS011;6970;51.340;3.240;2022-12-08T08:27:06;5.07;;;1.87;;
13797;SDS011;6970;51.340;3.240;2022-12-08T08:29:33;3.70;;;1.63;;
13797;SDS011;6970;51.340;3.240;2022-12-08T08:32:00;2.57;;;1.40;;
13797;SDS011;6970;51.340;3.240;2022-12-08T08:34:27;3.07;;;1.30;;
13797;SDS011;6970;51.340;3.240;2022-12-08T08:36:54;3.90;;;1.50;;
13797;SDS011;6970;51.340;3.240;2022-12-08T08:39:21;3.53;;;1.57;;
13797;SDS011;6970;51.340;3.240;2022-12-08T08:41:48;3.43;;;1.37;;
13797;SDS011;6970;51.340;3.240;2022-12-08T08:44:15;2.90;;;1.20;;
13797;SDS011;6970;51.340;3.240;2022-12-08T08:46:42;3.90;;;1.80;;
13797;SDS011;6970;51.340;3.240;2022-12-08T08:49:09;6.07;;;1.33;;
13797;SDS011;6970;51.340;3.240;2022-12-08T08:51:36;4.27;;;1.47;;
13797;SDS011;6970;51.340;3.240;2022-12-08T08:54:03;2.27;;;1.40;;
13797;SDS011;6970;51.340;3.240;2022-12-08T08:56:31;2.87;;;1.50;;
13797;SDS011;6970;51.340;3.240;2022-12-08T08:58:58;6.43;;;1.73;;
13797;SDS011;6970;51.340;3.240;2022-12-08T09:01:26;3.60;;;1.33;;
13797;SDS011;6970;51.340;3.240;2022-12-08T09:03:54;4.33;;;1.00;;
13797;SDS011;6970;51.340;3.240;2022-12-08T09:06:21;1.90;;;0.90;;
13797;SDS011;6970;51.340;3.240;2022-12-08T09:08:49;1.33;;;0.83;;
13797;SDS011;6970;51.340;3.240;2022-12-08T09:11:16;5.43;;;1.27;;
13797;SDS011;6970;51.340;3.240;2022-12-08T09:13:46;2.13;;;1.30;;
13797;SDS011;6970;51.340;3.240;2022-12-08T09:16:15;5.27;;;1.60;;
13797;SDS011;6970;51.340;3.240;2022-12-08T09:18:42;2.20;;;1.50;;
13797;SDS011;6970;51.340;3.240;2022-12-08T09:21:10;3.73;;;1.47;;
13797;SDS011;6970;51.340;3.240;2022-12-08T09:23:42;7.07;;;1.83;;
13797;SDS011;6970;51.340;3.240;2022-12-08T09:26:09;3.00;;;1.10;;
13797;SDS011;6970;51.340;3.240;2022-12-08T09:28:36;4.50;;;1.53;;
13797;SDS011;6970;51.340;3.240;2022-12-08T09:31:03;2.23;;;1.03;;
13797;SDS011;6970;51.340;3.240;2022-12-08T09:33:30;4.90;;;1.33;;
13797;SDS011;6970;51.340;3.240;2022-12-08T09:36:00;3.07;;;1.20;;
13797;SDS011;6970;51.340;3.240;2022-12-08T09:38:29;4.97;;;1.10;;
13797;SDS011;6970;51.340;3.240;2022-12-08T09:40:56;2.80;;;0.93;;
13797;SDS011;6970;51.340;3.240;2022-12-08T09:46:33;4.60;;;1.30;;
13797;SDS011;6970;51.340;3.240;2022-12-08T09:49:02;2.65;;;1.20;;
13797;SDS011;6970;51.340;3.240;2022-12-08T09:51:34;7.95;;;1.77;;
13797;SDS011;6970;51.340;3.240;2022-12-08T09:56:47;4.10;;;1.77;;
13797;SDS011;6970;51.340;3.240;2022-12-08T09:59:28;7.45;;;1.77;;
13797;SDS011;6970;51.340;3.240;2022-12-08T10:01:59;4.55;;;1.48;;
13797;SDS011;6970;51.340;3.240;2022-12-08T10:04:29;9.23;;;1.42;;
13797;SDS011;6970;51.340;3.240;2022-12-08T10:12:27;2.90;;;1.67;;
13797;SDS011;6970;51.340;3.240;2022-12-08T10:18:00;14.40;;;1.70;;
13797;SDS011;6970;51.340;3.240;2022-12-08T10:20:34;4.60;;;1.63;;
13797;SDS011;6970;51.340;3.240;2022-12-08T10:25:40;2.70;;;1.30;;
13797;SDS011;6970;51.340;3.240;2022-12-08T10:28:11;4.97;;;1.50;;
13797;SDS011;6970;51.340;3.240;2022-12-08T10:30:38;6.80;;;1.73;;
13797;SDS011;6970;51.340;3.240;2022-12-08T10:33:08;3.87;;;1.20;;
13797;SDS011;6970;51.340;3.240;2022-12-08T10:38:18;2.40;;;1.10;;
13797;SDS011;6970;51.340;3.240;2022-12-08T10:43:46;10.07;;;1.30;;
13797;SDS011;6970;51.340;3.240;2022-12-08T10:51:26;2.20;;;1.40;;
13797;SDS011;6970;51.340;3.240;2022-12-08T10:53:55;4.30;;;0.87;;
13797;SDS011;6970;51.340;3.240;2022-12-08T10:56:24;3.40;;;1.07;;
13797;SDS011;6970;51.340;3.240;2022-12-08T11:01:40;2.73;;;1.30;;
13797;SDS011;6970;51.340;3.240;2022-12-08T11:04:15;2.97;;;1.03;;
13797;SDS011;6970;51.340;3.240;2022-12-08T11:06:44;4.67;;;0.80;;
13797;SDS011;6970;51.340;3.240;2022-12-08T11:11:53;2.93;;;0.87;;
13797;SDS011;6970;51.340;3.240;2022-12-08T11:17:01;1.23;;;0.40;;
13797;SDS011;6970;51.340;3.240;2022-12-08T11:19:29;1.03;;;0.30;;
13797;SDS011;6970;51.340;3.240;2022-12-08T11:21:55;1.00;;;0.30;;
13797;SDS011;6970;51.340;3.240;2022-12-08T11:24:24;0.67;;;0.30;;
13797;SDS011;6970;51.340;3.240;2022-12-08T11:27:03;0.53;;;0.37;;
13797;SDS011;6970;51.340;3.240;2022-12-08T11:29:32;0.40;;;0.37;;
13797;SDS011;6970;51.340;3.240;2022-12-08T11:37:32;0.60;;;0.40;;
13797;SDS011;6970;51.340;3.240;2022-12-08T11:40:23;1.97;;;0.20;;
13797;SDS011;6970;51.340;3.240;2022-12-08T11:43:17;1.03;;;0.40;;
13797;SDS011;6970;51.340;3.240;2022-12-08T11:46:00;1.23;;;0.50;;
13797;SDS011;6970;51.340;3.240;2022-12-08T11:48:36;0.67;;;0.57;;
13797;SDS011;6970;51.340;3.240;2022-12-08T11:53:51;4.73;;;0.83;;
13797;SDS011;6970;51.340;3.240;2022-12-08T11:59:01;3.70;;;0.90;;
13797;SDS011;6970;51.340;3.240;2022-12-08T12:01:35;1.23;;;0.60;;
13797;SDS011;6970;51.340;3.240;2022-12-08T12:04:16;0.83;;;0.70;;
13797;SDS011;6970;51.340;3.240;2022-12-08T12:18:51;3.40;;;1.57;;
13797;SDS011;6970;51.340;3.240;2022-12-08T12:23:52;5.10;;;1.60;;
13797;SDS011;6970;51.340;3.240;2022-12-08T12:26:30;3.20;;;1.00;;
13797;SDS011;6970;51.340;3.240;2022-12-08T12:29:04;2.33;;;0.77;;
13797;SDS011;6970;51.340;3.240;2022-12-08T12:31:37;5.57;;;1.27;;
13797;SDS011;6970;51.340;3.240;2022-12-08T12:37:04;2.40;;;1.20;;
13797;SDS011;6970;51.340;3.240;2022-12-08T12:47:44;2.40;;;1.07;;
13797;SDS011;6970;51.340;3.240;2022-12-08T12:53:04;2.67;;;1.20;;
13797;SDS011;6970;51.340;3.240;2022-12-08T12:55:53;3.40;;;1.60;;
13797;SDS011;6970;51.340;3.240;2022-12-08T13:03:36;3.80;;;1.70;;
13797;SDS011;6970;51.340;3.240;2022-12-08T13:06:09;6.83;;;0.90;;
13797;SDS011;6970;51.340;3.240;2022-12-08T13:08:48;4.83;;;1.30;;
13797;SDS011;6970;51.340;3.240;2022-12-08T13:11:17;5.07;;;1.10;;
13797;SDS011;6970;51.340;3.240;2022-12-08T13:13:57;4.17;;;1.37;;
13797;SDS011;6970;51.340;3.240;2022-12-08T13:16:30;4.80;;;1.00;;
13797;SDS011;6970;51.340;3.240;2022-12-08T13:19:02;5.97;;;1.33;;
13797;SDS011;6970;51.340;3.240;2022-12-08T13:21:31;10.07;;;1.70;;
13797;SDS011;6970;51.340;3.240;2022-12-08T13:26:43;8.53;;;1.93;;
13797;SDS011;6970;51.340;3.240;2022-12-08T13:29:12;7.70;;;1.23;;
13797;SDS011;6970;51.340;3.240;2022-12-08T13:34:18;5.47;;;1.10;;
13797;SDS011;6970;51.340;3.240;2022-12-08T13:36:51;5.87;;;1.40;;
13797;SDS011;6970;51.340;3.240;2022-12-08T13:48:19;3.13;;;1.10;;
13797;SDS011;6970;51.340;3.240;2022-12-08T13:54:08;3.50;;;1.10;;
13797;SDS011;6970;51.340;3.240;2022-12-08T13:57:05;4.67;;;1.17;;
13797;SDS011;6970;51.340;3.240;2022-12-08T13:59:42;5.17;;;1.00;;
13797;SDS011;6970;51.340;3.240;2022-12-08T14:02:33;3.10;;;1.17;;
13797;SDS011;6970;51.340;3.240;2022-12-08T14:05:12;3.77;;;1.33;;
13797;SDS011;6970;51.340;3.240;2022-12-08T14:07:44;6.83;;;1.40;;
13797;SDS011;6970;51.340;3.240;2022-12-08T14:10:26;4.73;;;1.20;;
13797;SDS011;6970;51.340;3.240;2022-12-08T14:13:01;2.20;;;1.30;;
13797;SDS011;6970;51.340;3.240;2022-12-08T14:15:31;8.83;;;0.87;;
13797;SDS011;6970;51.340;3.240;2022-12-08T14:18:03;3.03;;;1.00;;
13797;SDS011;6970;51.340;3.240;2022-12-08T14:20:32;3.50;;;1.10;;
13797;SDS011;6970;51.340;3.240;2022-12-08T14:23:20;1.87;;;0.77;;
13797;SDS011;6970;51.340;3.240;2022-12-08T14:25:47;3.07;;;1.00;;
13797;SDS011;6970;51.340;3.240;2022-12-08T14:28:14;9.17;;;1.30;;
13797;SDS011;6970;51.340;3.240;2022-12-08T14:30:41;6.07;;;1.13;;
13797;SDS011;6970;51.340;3.240;2022-12-08T14:33:12;4.23;;;1.27;;
13797;SDS011;6970;51.340;3.240;2022-12-08T14:35:42;2.53;;;0.87;;
13797;SDS011;6970;51.340;3.240;2022-12-08T14:38:19;7.73;;;1.37;;
13797;SDS011;6970;51.340;3.240;2022-12-08T14:41:04;4.07;;;1.10;;
13797;SDS011;6970;51.340;3.240;2022-12-08T14:43:33;4.63;;;0.90;;
13797;SDS011;6970;51.340;3.240;2022-12-08T14:46:04;7.40;;;1.30;;
13797;SDS011;6970;51.340;3.240;2022-12-08T14:48:52;5.17;;;1.07;;
13797;SDS011;6970;51.340;3.240;2022-12-08T14:51:23;3.20;;;0.93;;
13797;SDS011;6970;51.340;3.240;2022-12-08T14:54:00;5.47;;;1.30;;
13797;SDS011;6970;51.340;3.240;2022-12-08T14:56:32;4.20;;;1.00;;
13797;SDS011;6970;51.340;3.240;2022-12-08T15:01:40;2.70;;;1.10;;
13797;SDS011;6970;51.340;3.240;2022-12-08T15:09:36;5.03;;;1.33;;
13797;SDS011;6970;51.340;3.240;2022-12-08T15:12:18;3.97;;;1.30;;
13797;SDS011;6970;51.340;3.240;2022-12-08T15:14:53;2.67;;;1.10;;
13797;SDS011;6970;51.340;3.240;2022-12-08T15:17:28;4.33;;;1.27;;
13797;SDS011;6970;51.340;3.240;2022-12-08T15:19:56;5.20;;;1.10;;
13797;SDS011;6970;51.340;3.240;2022-12-08T15:22:24;3.20;;;1.13;;
13797;SDS011;6970;51.340;3.240;2022-12-08T15:24:54;2.87;;;1.20;;
13797;SDS011;6970;51.340;3.240;2022-12-08T15:27:22;4.93;;;1.40;;
13797;SDS011;6970;51.340;3.240;2022-12-08T15:29:50;4.47;;;1.10;;
13797;SDS011;6970;51.340;3.240;2022-12-08T15:32:21;3.33;;;0.77;;
13797;SDS011;6970;51.340;3.240;2022-12-08T15:34:49;5.17;;;0.90;;
13797;SDS011;6970;51.340;3.240;2022-12-08T15:37:19;2.07;;;0.50;;
13797;SDS011;6970;51.340;3.240;2022-12-08T15:39:48;5.20;;;1.13;;
13797;SDS011;6970;51.340;3.240;2022-12-08T15:42:16;1.63;;;0.80;;
13797;SDS011;6970;51.340;3.240;2022-12-08T15:44:43;5.20;;;1.00;;
13797;SDS011;6970;51.340;3.240;2022-12-08T15:47:13;4.03;;;0.80;;
13797;SDS011;6970;51.340;3.240;2022-12-08T15:49:42;6.67;;;1.10;;
13797;SDS011;6970;51.340;3.240;2022-12-08T15:52:13;4.43;;;0.80;;
13797;SDS011;6970;51.340;3.240;2022-12-08T15:54:45;2.47;;;1.73;;
13797;SDS011;6970;51.340;3.240;2022-12-08T15:57:16;3.73;;;1.20;;
13797;SDS011;6970;51.340;3.240;2022-12-08T16:00:09;6.90;;;0.83;;
13797;SDS011;6970;51.340;3.240;2022-12-08T16:03:21;5.87;;;1.17;;
13797;SDS011;6970;51.340;3.240;2022-12-08T16:06:11;4.20;;;1.17;;
13797;SDS011;6970;51.340;3.240;2022-12-08T16:09:02;2.73;;;0.80;;
13797;SDS011;6970;51.340;3.240;2022-12-08T16:11:38;4.37;;;1.03;;
13797;SDS011;6970;51.340;3.240;2022-12-08T16:14:35;3.03;;;1.00;;
13797;SDS011;6970;51.340;3.240;2022-12-08T16:17:23;4.53;;;1.07;;
13797;SDS011;6970;51.340;3.240;2022-12-08T16:19:52;3.83;;;1.20;;
13797;SDS011;6970;51.340;3.240;2022-12-08T16:22:20;2.67;;;1.20;;
13797;SDS011;6970;51.340;3.240;2022-12-08T16:25:11;3.23;;;1.07;;
13797;SDS011;6970;51.340;3.240;2022-12-08T16:27:54;3.13;;;0.93;;
13797;SDS011;6970;51.340;3.240;2022-12-08T16:30:33;6.40;;;1.60;;
13797;SDS011;6970;51.340;3.240;2022-12-08T16:33:00;3.10;;;1.60;;
13797;SDS011;6970;51.340;3.240;2022-12-08T16:35:28;4.30;;;1.43;;
13797;SDS011;6970;51.340;3.240;2022-12-08T16:37:55;5.13;;;1.10;;
13797;SDS011;6970;51.340;3.240;2022-12-08T16:40:23;3.03;;;1.13;;
13797;SDS011;6970;51.340;3.240;2022-12-08T16:42:50;4.27;;;2.17;;
13797;SDS011;6970;51.340;3.240;2022-12-08T16:45:18;3.97;;;2.23;;
13797;SDS011;6970;51.340;3.240;2022-12-08T16:47:48;3.77;;;2.57;;
13797;SDS011;6970;51.340;3.240;2022-12-08T16:50:20;4.77;;;2.20;;
13797;SDS011;6970;51.340;3.240;2022-12-08T16:52:55;4.77;;;1.70;;
13797;SDS011;6970;51.340;3.240;2022-12-08T16:55:23;6.40;;;1.40;;
13797;SDS011;6970;51.340;3.240;2022-12-08T16:57:50;4.00;;;1.27;;
13797;SDS011;6970;51.340;3.240;2022-12-08T17:00:19;5.37;;;1.10;;
13797;SDS011;6970;51.340;3.240;2022-12-08T17:02:48;3.63;;;1.00;;
13797;SDS011;6970;51.340;3.240;2022-12-08T17:05:16;1.63;;;0.73;;
13797;SDS011;6970;51.340;3.240;2022-12-08T17:07:45;6.53;;;1.10;;
13797;SDS011;6970;51.340;3.240;2022-12-08T17:10:16;4.77;;;1.13;;
13797;SDS011;6970;51.340;3.240;2022-12-08T17:12:51;3.77;;;1.00;;
13797;SDS011;6970;51.340;3.240;2022-12-08T17:15:20;5.47;;;1.23;;
13797;SDS011;6970;51.340;3.240;2022-12-08T17:17:49;5.60;;;1.03;;
13797;SDS011;6970;51.340;3.240;2022-12-08T17:20:18;4.20;;;1.00;;
13797;SDS011;6970;51.340;3.240;2022-12-08T17:22:53;2.30;;;0.73;;
13797;SDS011;6970;51.340;3.240;2022-12-08T17:25:23;3.30;;;0.97;;
13797;SDS011;6970;51.340;3.240;2022-12-08T17:27:51;3.53;;;0.90;;
13797;SDS011;6970;51.340;3.240;2022-12-08T17:30:18;3.37;;;1.17;;
13797;SDS011;6970;51.340;3.240;2022-12-08T17:32:45;2.00;;;0.80;;
13797;SDS011;6970;51.340;3.240;2022-12-08T17:35:12;4.63;;;1.20;;
13797;SDS011;6970;51.340;3.240;2022-12-08T17:37:39;3.10;;;1.00;;
13797;SDS011;6970;51.340;3.240;2022-12-08T17:40:08;3.93;;;1.10;;
13797;SDS011;6970;51.340;3.240;2022-12-08T17:42:35;3.03;;;1.10;;
13797;SDS011;6970;51.340;3.240;2022-12-08T17:45:04;4.10;;;0.90;;
13797;SDS011;6970;51.340;3.240;2022-12-08T17:47:32;4.00;;;0.80;;
13797;SDS011;6970;51.340;3.240;2022-12-08T17:49:59;3.97;;;1.17;;